Isle Au Haut, Maine
Current Conditions -  °F | °C
As of 9:35 PM on Wednesday 22 Oct 2014 (Local Time) from KRKD Reporting Station
Overcast Overcast  
Wind Chill: 41°   Ceiling: 1200
Heat Index: 48°   Visibility: 10mi
Dew Point: 45°   Wind: 21mph
Humidity: 87%   Direction: 40°NE
Pressure: 30.02"   Gusts: 31mph
Location:  44.07°N, 68.63°W
Report Text: KRKD 230135Z AUTO 04018G27KT 340V050 10SM OVC012 09/07 A3002 RMK AO1
Loading
Personal Weather Stations






























Interactive Weather Map
Tropical Storm Tracking
New forecast layout! Learn more

10-Day Weather Forecast

Advertisements
Track Severe Weather on mobile